Time;durP1;ratioP1;P1;durP2;ratioP2;P2;SDS_P1;SDS_P2;PMS_P1;PMS_P2;Temp;Humidity;BMP_temperature;BMP_pressure;BME280_temperature;BME280_humidity;BME280_pressure;Samples;Min_cycle;Max_cycle;Signal;HPM_P1;HPM_P2
2021/05/02 00:01:06;;;;;;;8.65;5.50;;;;;;;;;;4989864;28;20030;-60
2021/05/02 00:03:32;;;;;;;7.75;5.22;;;;;;;;;;4992871;28;20029;-60
2021/05/02 00:05:58;;;;;;;12.18;5.20;;;;;;;;;;4990615;28;20034;-60
2021/05/02 00:08:24;;;;;;;10.25;5.82;;;;;;;;;;4990155;28;20109;-60
2021/05/02 00:10:50;;;;;;;11.38;6.15;;;;;;;;;;4989628;28;20034;-60
2021/05/02 00:13:16;;;;;;;12.27;6.40;;;;;;;;;;4989740;28;20089;-60
2021/05/02 00:15:42;;;;;;;8.65;5.80;;;;;;;;;;4991724;28;20050;-60
2021/05/02 00:18:08;;;;;;;10.13;6.22;;;;;;;;;;4991109;28;20061;-60
2021/05/02 00:20:34;;;;;;;12.15;6.70;;;;;;;;;;4989504;28;20525;-60
2021/05/02 00:23:04;;;;;;;39.97;7.60;;;;;;;;;;4989250;28;20018;-60
2021/05/02 00:25:31;;;;;;;11.10;6.65;;;;;;;;;;4989116;28;20042;-60
2021/05/02 00:27:57;;;;;;;12.27;7.18;;;;;;;;;;4974636;28;20034;-60
2021/05/02 00:30:24;;;;;;;13.38;7.40;;;;;;;;;;4992813;28;20027;-60
2021/05/02 00:32:52;;;;;;;10.55;6.80;;;;;;;;;;4989414;28;20453;-60
2021/05/02 00:35:19;;;;;;;13.57;7.38;;;;;;;;;;4989222;28;20393;-60
2021/05/02 00:37:45;;;;;;;13.23;7.18;;;;;;;;;;4989275;28;20390;-60
2021/05/02 00:40:13;;;;;;;13.00;7.00;;;;;;;;;;4989474;28;20066;-60
2021/05/02 00:42:46;;;;;;;14.20;7.55;;;;;;;;;;4991821;28;20025;-60
2021/05/02 00:45:15;;;;;;;9.52;5.72;;;;;;;;;;4991092;28;20105;-60
2021/05/02 00:47:45;;;;;;;8.77;4.95;;;;;;;;;;4989461;28;20026;-60
2021/05/02 00:50:14;;;;;;;8.43;4.78;;;;;;;;;;4988694;28;20433;-60
2021/05/02 00:52:50;;;;;;;7.28;4.57;;;;;;;;;;4988684;28;20434;-61
2021/05/02 00:55:21;;;;;;;7.03;3.97;;;;;;;;;;4988842;28;20022;-60
2021/05/02 00:57:51;;;;;;;8.98;4.93;;;;;;;;;;4990722;28;20019;-60
2021/05/02 01:00:19;;;;;;;5.13;3.38;;;;;;;;;;4990928;28;20030;-60
2021/05/02 01:02:47;;;;;;;6.88;3.85;;;;;;;;;;4988914;28;20026;-60
2021/05/02 01:05:13;;;;;;;6.90;4.60;;;;;;;;;;4989081;28;20023;-60
2021/05/02 01:07:40;;;;;;;7.57;5.00;;;;;;;;;;4988692;28;20389;-60
2021/05/02 01:10:11;;;;;;;7.50;4.80;;;;;;;;;;4988817;28;20034;-60
2021/05/02 01:12:39;;;;;;;10.07;5.55;;;;;;;;;;4991185;28;20069;-60
2021/05/02 01:15:06;;;;;;;8.88;4.47;;;;;;;;;;4990080;28;20073;-60
2021/05/02 01:17:34;;;;;;;7.43;4.40;;;;;;;;;;4988550;28;20065;-60
2021/05/02 01:20:00;;;;;;;5.60;3.55;;;;;;;;;;4988939;28;20149;-60
2021/05/02 01:22:27;;;;;;;6.70;3.72;;;;;;;;;;4988397;28;20068;-60
2021/05/02 01:24:53;;;;;;;5.97;3.17;;;;;;;;;;4989662;28;20078;-60
2021/05/02 01:27:29;;;;;;;5.53;3.65;;;;;;;;;;4991394;28;20022;-59
2021/05/02 01:29:56;;;;;;;6.82;3.42;;;;;;;;;;4990542;28;20034;-60
2021/05/02 01:32:23;;;;;;;6.47;3.65;;;;;;;;;;4973516;28;20033;-60
2021/05/02 01:34:49;;;;;;;5.45;3.80;;;;;;;;;;4988348;28;20035;-61
2021/05/02 01:37:15;;;;;;;10.00;4.63;;;;;;;;;;4988858;28;20030;-60
2021/05/02 01:39:41;;;;;;;8.80;4.80;;;;;;;;;;4994806;28;20441;-60
2021/05/02 01:42:08;;;;;;;5.75;3.50;;;;;;;;;;4993815;28;20029;-60
2021/05/02 01:44:34;;;;;;;6.00;3.50;;;;;;;;;;4991931;28;20038;-60
2021/05/02 01:47:05;;;;;;;5.63;3.13;;;;;;;;;;4992524;28;20022;-61
2021/05/02 01:49:33;;;;;;;5.43;3.67;;;;;;;;;;4992537;28;20054;-60
2021/05/02 01:51:59;;;;;;;5.95;3.40;;;;;;;;;;4992069;28;20029;-60
2021/05/02 01:54:26;;;;;;;6.03;3.17;;;;;;;;;;4978319;28;20026;-60
2021/05/02 01:56:52;;;;;;;5.25;3.22;;;;;;;;;;4992317;28;20027;-60
2021/05/02 01:59:18;;;;;;;4.72;3.25;;;;;;;;;;4991885;28;20437;-60
2021/05/02 02:01:44;;;;;;;4.50;3.10;;;;;;;;;;4991883;28;20093;-61
2021/05/02 02:04:11;;;;;;;8.13;3.38;;;;;;;;;;4992461;28;20030;-60
2021/05/02 02:06:37;;;;;;;5.38;3.47;;;;;;;;;;4994567;28;20027;-60
2021/05/02 02:09:05;;;;;;;5.82;3.72;;;;;;;;;;4992990;28;20033;-61
2021/05/02 02:11:31;;;;;;;5.90;3.30;;;;;;;;;;4992163;28;20026;-60
2021/05/02 02:13:57;;;;;;;6.00;3.58;;;;;;;;;;4991638;28;20425;-60
2021/05/02 02:16:24;;;;;;;6.90;3.70;;;;;;;;;;4992145;28;20152;-60
2021/05/02 02:18:50;;;;;;;6.13;3.67;;;;;;;;;;4992969;28;20573;-60
2021/05/02 02:21:17;;;;;;;5.28;3.05;;;;;;;;;;4994559;28;20034;-60
2021/05/02 02:23:45;;;;;;;5.35;3.35;;;;;;;;;;4991313;28;20047;-60
2021/05/02 02:26:11;;;;;;;4.43;3.10;;;;;;;;;;4976765;28;20031;-60
2021/05/02 02:28:38;;;;;;;9.70;4.50;;;;;;;;;;4991808;28;20053;-60
2021/05/02 02:31:04;;;;;;;5.05;3.88;;;;;;;;;;4991320;28;20045;-60
2021/05/02 02:33:31;;;;;;;7.90;4.40;;;;;;;;;;4994986;28;20035;-61
2021/05/02 02:35:57;;;;;;;5.80;4.20;;;;;;;;;;4992599;28;20029;-60
2021/05/02 02:38:24;;;;;;;5.90;4.35;;;;;;;;;;4991623;28;20450;-60
2021/05/02 02:40:52;;;;;;;4.57;3.00;;;;;;;;;;4991383;28;20042;-60
2021/05/02 02:43:20;;;;;;;3.30;2.58;;;;;;;;;;4991516;28;20023;-60
2021/05/02 02:45:47;;;;;;;10.15;4.72;;;;;;;;;;4993332;28;20053;-61
2021/05/02 02:48:16;;;;;;;4.85;3.33;;;;;;;;;;4993661;28;20022;-60
2021/05/02 02:50:44;;;;;;;7.35;3.95;;;;;;;;;;4991092;28;20027;-60
2021/05/02 02:53:10;;;;;;;;;;;;;;;;;;4991379;28;20026;-60
2021/05/02 02:55:38;;;;;;;6.07;3.47;;;;;;;;;;4991135;28;20332;-60
2021/05/02 02:58:05;;;;;;;6.88;4.10;;;;;;;;;;4991322;28;20057;-61
2021/05/02 03:00:34;;;;;;;6.75;3.92;;;;;;;;;;4993906;28;20034;-60
2021/05/02 03:03:08;;;;;;;10.68;3.72;;;;;;;;;;4992515;28;20057;-60
2021/05/02 03:05:35;;;;;;;7.15;3.80;;;;;;;;;;4991120;28;20030;-60
2021/05/02 03:08:02;;;;;;;4.82;3.40;;;;;;;;;;4991003;28;20030;-61
2021/05/02 03:10:28;;;;;;;6.50;3.70;;;;;;;;;;4990912;28;20478;-60
2021/05/02 03:12:55;;;;;;;6.10;3.50;;;;;;;;;;4974456;28;20717;-63
2021/05/02 03:15:21;;;;;;;5.35;3.20;;;;;;;;;;4993869;28;20084;-64
2021/05/02 03:17:54;;;;;;;7.32;3.60;;;;;;;;;;4990876;28;20058;-64
2021/05/02 03:20:21;;;;;;;6.07;3.72;;;;;;;;;;4990885;28;20074;-63
2021/05/02 03:22:52;;;;;;;156.25;8.30;;;;;;;;;;4990457;28;20035;-63
2021/05/02 03:25:26;;;;;;;9.27;4.72;;;;;;;;;;4990470;28;20088;-63
2021/05/02 03:27:52;;;;;;;9.35;4.45;;;;;;;;;;4991291;28;20105;-63
2021/05/02 03:30:19;;;;;;;10.10;4.53;;;;;;;;;;4993419;28;20082;-64
2021/05/02 03:32:49;;;;;;;5.82;3.75;;;;;;;;;;4989985;28;20034;-64
2021/05/02 03:35:16;;;;;;;5.90;3.88;;;;;;;;;;4990339;28;20026;-63
2021/05/02 03:37:47;;;;;;;6.85;4.03;;;;;;;;;;4990451;28;20026;-64
2021/05/02 03:40:13;;;;;;;6.55;3.75;;;;;;;;;;4990246;28;20042;-63
2021/05/02 03:42:40;;;;;;;5.40;3.20;;;;;;;;;;4992636;28;20022;-64
2021/05/02 03:45:06;;;;;;;6.38;3.60;;;;;;;;;;4991712;28;20035;-64
2021/05/02 03:47:32;;;;;;;5.00;3.40;;;;;;;;;;4990482;28;20029;-63
2021/05/02 03:49:59;;;;;;;105.97;5.15;;;;;;;;;;4989978;28;20470;-63
2021/05/02 03:52:25;;;;;;;69.40;6.22;;;;;;;;;;4989698;28;20104;-63
2021/05/02 03:54:54;;;;;;;7.75;4.50;;;;;;;;;;4991399;28;20483;-63
2021/05/02 03:57:20;;;;;;;5.75;4.10;;;;;;;;;;4993110;28;20057;-64
2021/05/02 03:59:47;;;;;;;57.80;6.63;;;;;;;;;;4989833;28;20069;-64
2021/05/02 04:02:16;;;;;;;12.60;7.28;;;;;;;;;;4989547;28;20023;-64
2021/05/02 04:04:42;;;;;;;10.60;6.00;;;;;;;;;;4989704;28;20101;-63
2021/05/02 04:07:10;;;;;;;6.82;4.03;;;;;;;;;;4990137;28;20430;-63
2021/05/02 04:09:36;;;;;;;221.38;10.20;;;;;;;;;;4991815;28;20022;-64
2021/05/02 04:12:03;;;;;;;184.65;10.30;;;;;;;;;;4991019;28;20022;-63
2021/05/02 04:14:29;;;;;;;75.78;6.78;;;;;;;;;;4989830;28;20508;-63
2021/05/02 04:17:13;;;;;;;129.02;8.20;;;;;;;;;;4990051;28;20101;-63
2021/05/02 04:19:44;;;;;;;47.10;5.78;;;;;;;;;;4989879;28;20030;-64
2021/05/02 04:22:11;;;;;;;15.85;5.80;;;;;;;;;;4981570;28;20018;-64
2021/05/02 04:24:37;;;;;;;11.20;5.47;;;;;;;;;;4994305;28;20677;-64
2021/05/02 04:27:04;;;;;;;11.02;5.82;;;;;;;;;;4990801;28;20146;-64
2021/05/02 04:29:30;;;;;;;55.63;6.32;;;;;;;;;;4990908;28;20386;-64
2021/05/02 04:31:57;;;;;;;38.25;6.57;;;;;;;;;;4993777;28;20052;-63
2021/05/02 04:34:23;;;;;;;178.63;9.35;;;;;;;;;;4992925;28;20025;-63
2021/05/02 04:36:50;;;;;;;176.32;8.38;;;;;;;;;;4991104;28;20034;-63
2021/05/02 04:39:17;;;;;;;34.15;7.00;;;;;;;;;;4996042;28;20500;-64
2021/05/02 04:41:43;;;;;;;44.25;7.80;;;;;;;;;;4993231;28;20098;-63
2021/05/02 04:44:10;;;;;;;33.50;8.80;;;;;;;;;;4993145;28;20030;-63
2021/05/02 04:46:36;;;;;;;14.63;8.48;;;;;;;;;;4993489;28;20422;-64
2021/05/02 04:49:02;;;;;;;15.95;7.70;;;;;;;;;;4989627;28;20039;-65
2021/05/02 04:51:28;;;;;;;13.70;7.30;;;;;;;;;;4995887;28;20031;-64
2021/05/02 04:53:54;;;;;;;176.00;10.90;;;;;;;;;;4994719;28;20363;-64
2021/05/02 04:56:20;;;;;;;50.05;7.20;;;;;;;;;;4993267;28;20025;-63
2021/05/02 04:58:46;;;;;;;63.60;7.53;;;;;;;;;;4993679;28;20032;-64
2021/05/02 05:01:15;;;;;;;17.15;7.35;;;;;;;;;;4990740;28;20030;-64
2021/05/02 05:03:42;;;;;;;11.77;7.25;;;;;;;;;;4993431;28;20026;-65
2021/05/02 05:06:08;;;;;;;16.90;8.02;;;;;;;;;;4989532;28;20030;-63
2021/05/02 05:08:34;;;;;;;14.32;8.43;;;;;;;;;;4989095;28;20113;-63
2021/05/02 05:11:00;;;;;;;12.27;7.13;;;;;;;;;;4989044;28;20022;-63
2021/05/02 05:13:26;;;;;;;11.27;6.75;;;;;;;;;;4988570;28;20026;-63
2021/05/02 05:15:55;;;;;;;11.13;6.32;;;;;;;;;;4990128;28;20101;-63
2021/05/02 05:18:22;;;;;;;10.38;6.10;;;;;;;;;;4991456;28;20398;-63
2021/05/02 05:20:48;;;;;;;9.45;6.45;;;;;;;;;;4988681;28;20121;-64
2021/05/02 05:23:14;;;;;;;10.00;6.38;;;;;;;;;;4988610;28;20026;-63
2021/05/02 05:25:40;;;;;;;10.40;6.28;;;;;;;;;;4989739;28;20034;-64
2021/05/02 05:28:06;;;;;;;12.88;6.25;;;;;;;;;;4988289;28;20023;-63
2021/05/02 05:30:32;;;;;;;9.75;6.10;;;;;;;;;;4991473;28;20035;-62
2021/05/02 05:33:02;;;;;;;7.75;5.22;;;;;;;;;;4989173;28;20069;-64
2021/05/02 05:35:28;;;;;;;8.32;4.97;;;;;;;;;;4988484;28;20095;-63
2021/05/02 05:37:54;;;;;;;8.88;5.28;;;;;;;;;;4988785;28;20057;-62
2021/05/02 05:40:20;;;;;;;8.10;5.10;;;;;;;;;;4988656;28;20039;-63
2021/05/02 05:42:46;;;;;;;9.35;5.93;;;;;;;;;;4990055;28;20022;-63
2021/05/02 05:45:12;;;;;;;8.15;4.20;;;;;;;;;;4989789;28;20081;-62
2021/05/02 05:47:38;;;;;;;8.48;5.25;;;;;;;;;;4988403;28;20031;-63
2021/05/02 05:50:11;;;;;;;9.25;4.95;;;;;;;;;;4988793;28;20070;-62
2021/05/02 05:52:37;;;;;;;8.15;4.82;;;;;;;;;;4988802;28;20030;-62
2021/05/02 05:55:03;;;;;;;8.65;4.63;;;;;;;;;;4988358;28;20027;-63
2021/05/02 05:57:29;;;;;;;6.70;4.47;;;;;;;;;;4991035;28;20028;-62
2021/05/02 05:59:55;;;;;;;5.90;3.72;;;;;;;;;;4988923;28;20071;-62
2021/05/02 06:02:21;;;;;;;7.57;4.82;;;;;;;;;;4988321;28;20023;-63
2021/05/02 06:04:47;;;;;;;7.90;4.40;;;;;;;;;;4987870;28;20031;-62
2021/05/02 06:07:13;;;;;;;6.30;4.32;;;;;;;;;;4988221;28;20023;-62
2021/05/02 06:09:39;;;;;;;7.10;4.18;;;;;;;;;;4990698;28;20469;-62
2021/05/02 06:12:05;;;;;;;8.50;4.38;;;;;;;;;;4989291;28;20041;-62
2021/05/02 06:14:31;;;;;;;6.10;3.72;;;;;;;;;;4988142;28;20043;-61
2021/05/02 06:16:57;;;;;;;5.47;3.63;;;;;;;;;;4986504;28;20489;-62
2021/05/02 06:19:23;;;;;;;4.50;3.08;;;;;;;;;;4985549;28;20058;-62
2021/05/02 06:21:49;;;;;;;5.32;2.63;;;;;;;;;;4988260;28;20493;-62
2021/05/02 06:24:15;;;;;;;4.70;2.58;;;;;;;;;;4990320;28;20121;-63
2021/05/02 06:26:41;;;;;;;4.82;2.65;;;;;;;;;;4990583;28;20049;-62
2021/05/02 06:29:08;;;;;;;3.33;2.50;;;;;;;;;;4989960;28;20628;-61
2021/05/02 06:31:34;;;;;;;5.38;1.77;;;;;;;;;;4990511;28;20109;-61
2021/05/02 06:34:00;;;;;;;2.10;1.25;;;;;;;;;;4990464;28;20030;-62
2021/05/02 06:36:26;;;;;;;3.28;1.23;;;;;;;;;;4994077;28;20062;-61
2021/05/02 06:38:52;;;;;;;2.72;1.40;;;;;;;;;;4990925;28;20641;-62
2021/05/02 06:41:17;;;;;;;1.98;0.90;;;;;;;;;;4991552;28;20104;-62
2021/05/02 06:43:43;;;;;;;3.22;1.30;;;;;;;;;;4990896;28;20030;-62
2021/05/02 06:46:26;;;;;;;2.33;0.80;;;;;;;;;;4990795;28;20073;-62
2021/05/02 06:48:53;;;;;;;1.83;1.27;;;;;;;;;;4975157;28;20023;-62
2021/05/02 06:51:19;;;;;;;2.72;1.58;;;;;;;;;;4994295;28;20022;-63
2021/05/02 06:53:45;;;;;;;1.35;0.80;;;;;;;;;;4973706;28;20731;-63
2021/05/02 06:56:11;;;;;;;2.88;1.10;;;;;;;;;;4989138;28;20038;-63
2021/05/02 06:58:37;;;;;;;2.47;0.90;;;;;;;;;;4991196;28;20030;-64
2021/05/02 07:01:02;;;;;;;1.73;0.90;;;;;;;;;;5018922;23;20069;-63
2021/05/02 07:03:28;;;;;;;1.33;0.80;;;;;;;;;;5009549;28;20477;-63
2021/05/02 07:05:54;;;;;;;1.92;0.60;;;;;;;;;;5012014;28;20100;-63
2021/05/02 07:08:20;;;;;;;2.20;0.50;;;;;;;;;;5009428;28;20022;-63
2021/05/02 07:10:46;;;;;;;1.92;0.60;;;;;;;;;;5010520;28;20049;-62
2021/05/02 07:13:12;;;;;;;0.52;0.50;;;;;;;;;;5008611;28;20018;-63
2021/05/02 07:15:39;;;;;;;1.45;0.30;;;;;;;;;;5012083;28;20022;-63
2021/05/02 07:18:05;;;;;;;2.78;0.60;;;;;;;;;;5010323;28;20026;-62
2021/05/02 07:20:31;;;;;;;3.25;0.80;;;;;;;;;;5009275;28;20117;-63
2021/05/02 07:22:57;;;;;;;1.88;1.02;;;;;;;;;;5010687;28;20022;-64
2021/05/02 07:25:24;;;;;;;0.82;0.70;;;;;;;;;;5010280;28;20030;-63
2021/05/02 07:27:50;;;;;;;3.50;1.17;;;;;;;;;;5011841;28;20520;-63
2021/05/02 07:30:17;;;;;;;1.38;0.88;;;;;;;;;;5027858;28;20030;-63
2021/05/02 07:32:43;;;;;;;1.30;0.77;;;;;;;;;;5010575;28;20036;-64
2021/05/02 07:35:10;;;;;;;2.75;0.82;;;;;;;;;;5008629;28;20380;-64
2021/05/02 07:37:36;;;;;;;0.82;0.70;;;;;;;;;;5010031;28;20085;-63
2021/05/02 07:40:02;;;;;;;3.33;0.70;;;;;;;;;;5010047;28;20022;-63
2021/05/02 07:42:28;;;;;;;1.08;0.82;;;;;;;;;;5013160;28;20030;-63
2021/05/02 07:44:54;;;;;;;0.40;0.40;;;;;;;;;;5011812;28;20026;-63
2021/05/02 07:47:20;;;;;;;0.15;0.10;;;;;;;;;;5010306;28;20040;-62
2021/05/02 07:49:46;;;;;;;0.88;0.03;;;;;;;;;;5009949;28;20030;-62
2021/05/02 07:52:12;;;;;;;0.00;0.00;;;;;;;;;;5010062;28;20029;-63
2021/05/02 07:54:38;;;;;;;0.00;0.00;;;;;;;;;;5012481;28;20030;-62
2021/05/02 07:57:04;;;;;;;0.00;0.00;;;;;;;;;;5011210;28;20033;-64
2021/05/02 07:59:30;;;;;;;0.00;0.00;;;;;;;;;;5009691;28;20123;-63
2021/05/02 08:01:56;;;;;;;1.40;0.55;;;;;;;;;;5009044;28;20077;-64
2021/05/02 08:04:22;;;;;;;0.10;0.10;;;;;;;;;;5009764;28;20029;-63
2021/05/02 08:06:48;;;;;;;0.30;0.10;;;;;;;;;;5011387;28;25977;-64
2021/05/02 08:09:14;;;;;;;0.85;0.17;;;;;;;;;;5011761;28;20037;-64
2021/05/02 08:11:40;;;;;;;0.52;0.17;;;;;;;;;;5009756;28;20029;-64
2021/05/02 08:14:06;;;;;;;0.22;0.10;;;;;;;;;;5009092;28;20025;-65
2021/05/02 08:16:33;;;;;;;0.15;0.13;;;;;;;;;;5009427;28;20030;-63
2021/05/02 08:19:01;;;;;;;0.25;0.20;;;;;;;;;;5009884;28;20018;-64
2021/05/02 08:21:27;;;;;;;0.10;0.10;;;;;;;;;;5013001;28;20076;-64
2021/05/02 08:23:53;;;;;;;0.10;0.10;;;;;;;;;;5009506;28;20034;-63
2021/05/02 08:26:19;;;;;;;0.10;0.10;;;;;;;;;;5008846;28;20033;-64
2021/05/02 08:28:45;;;;;;;0.10;0.10;;;;;;;;;;5009302;28;20022;-64
2021/05/02 08:31:14;;;;;;;0.85;0.00;;;;;;;;;;5009535;28;20018;-64
2021/05/02 08:33:40;;;;;;;0.00;0.00;;;;;;;;;;5011267;28;20030;-64
2021/05/02 08:36:07;;;;;;;2.92;0.20;;;;;;;;;;5010204;28;20018;-64
2021/05/02 08:38:33;;;;;;;0.00;0.00;;;;;;;;;;5010360;28;20052;-64
2021/05/02 08:41:00;;;;;;;0.00;0.00;;;;;;;;;;5009310;28;20395;-64
2021/05/02 08:43:26;;;;;;;0.32;0.10;;;;;;;;;;5008923;28;20022;-64
2021/05/02 08:45:52;;;;;;;1.02;0.20;;;;;;;;;;5009970;28;20493;-64
2021/05/02 08:48:21;;;;;;;0.00;0.00;;;;;;;;;;5019746;22;20113;-91
2021/05/02 08:50:49;;;;;;;1.55;0.10;;;;;;;;;;4991482;28;20026;-90
2021/05/02 08:53:15;;;;;;;0.10;0.10;;;;;;;;;;5002291;28;20014;-92
2021/05/02 08:55:42;;;;;;;0.00;0.00;;;;;;;;;;4981380;28;20026;-91
2021/05/02 08:58:14;;;;;;;0.20;0.10;;;;;;;;;;4975450;28;20078;-91
2021/05/02 09:00:40;;;;;;;0.45;0.10;;;;;;;;;;4995616;28;20058;-92
2021/05/02 09:03:07;;;;;;;0.50;0.35;;;;;;;;;;4998594;28;20370;-92
2021/05/02 09:05:43;;;;;;;0.00;0.00;;;;;;;;;;5003443;28;20036;-91
2021/05/02 09:08:09;;;;;;;0.00;0.00;;;;;;;;;;5002872;28;20541;-91
2021/05/02 09:10:36;;;;;;;0.30;0.10;;;;;;;;;;4981179;28;20056;-91
2021/05/02 09:13:04;;;;;;;0.00;0.00;;;;;;;;;;4991678;28;20084;-91
2021/05/02 09:15:31;;;;;;;0.45;0.45;;;;;;;;;;4998229;28;20022;-91
2021/05/02 09:20:48;;;;;;;0.25;0.10;;;;;;;;;;5005602;28;20050;-92
2021/05/02 09:23:15;;;;;;;0.00;0.00;;;;;;;;;;4985458;28;20391;-91
2021/05/02 09:25:50;;;;;;;0.38;0.30;;;;;;;;;;4979462;28;20433;-91
2021/05/02 09:28:18;;;;;;;0.17;0.10;;;;;;;;;;4978093;28;20181;-91
2021/05/02 09:30:44;;;;;;;1.77;1.08;;;;;;;;;;4995930;28;20534;-90
2021/05/02 09:33:24;;;;;;;0.30;0.28;;;;;;;;;;4980851;28;20479;-91
2021/05/02 09:35:50;;;;;;;0.60;0.20;;;;;;;;;;4980789;28;20026;-92
2021/05/02 09:38:18;;;;;;;0.25;0.20;;;;;;;;;;4981602;28;20113;-91
2021/05/02 09:40:54;;;;;;;0.50;0.10;;;;;;;;;;4995558;28;20113;-91
2021/05/02 09:43:40;;;;;;;0.80;0.77;;;;;;;;;;4988748;28;20435;-91
2021/05/02 09:46:08;;;;;;;0.00;0.00;;;;;;;;;;4979343;28;20509;-91
2021/05/02 09:48:35;;;;;;;0.30;0.30;;;;;;;;;;4978273;28;20050;-90
2021/05/02 09:51:21;;;;;;;3.90;2.00;;;;;;;;;;4997470;28;20054;-91
2021/05/02 09:54:08;;;;;;;0.10;0.10;;;;;;;;;;5002986;28;20497;-90
2021/05/02 09:56:35;;;;;;;0.00;0.00;;;;;;;;;;4987647;28;20125;-90
2021/05/02 09:59:02;;;;;;;0.00;0.00;;;;;;;;;;4993004;28;20030;-90
2021/05/02 10:01:28;;;;;;;0.00;0.00;;;;;;;;;;5001051;28;20042;-89
2021/05/02 10:03:55;;;;;;;0.00;0.00;;;;;;;;;;4997136;28;20072;-91
2021/05/02 10:06:29;;;;;;;0.08;0.00;;;;;;;;;;5015530;28;20287;-90
2021/05/02 10:08:55;;;;;;;0.20;0.20;;;;;;;;;;5017412;28;20400;-91
2021/05/02 10:11:24;;;;;;;0.25;0.10;;;;;;;;;;5000236;28;20045;-89
2021/05/02 10:13:50;;;;;;;0.47;0.40;;;;;;;;;;4999853;28;20038;-90
2021/05/02 10:16:16;;;;;;;0.50;0.00;;;;;;;;;;5020054;28;20093;-90
2021/05/02 10:18:42;;;;;;;0.30;0.30;;;;;;;;;;5004218;28;20060;-90
2021/05/02 10:21:09;;;;;;;0.00;0.00;;;;;;;;;;5006890;28;20034;-91
2021/05/02 10:23:36;;;;;;;0.00;0.00;;;;;;;;;;4976611;28;20042;-91
2021/05/02 10:26:03;;;;;;;0.57;0.35;;;;;;;;;;5004996;28;20041;-90
2021/05/02 10:28:31;;;;;;;0.10;0.10;;;;;;;;;;5009339;28;20081;-90
2021/05/02 10:31:01;;;;;;;0.10;0.00;;;;;;;;;;5015825;28;20104;-91
2021/05/02 10:33:31;;;;;;;0.57;0.10;;;;;;;;;;4993802;28;20078;-91
2021/05/02 10:36:03;;;;;;;2.20;1.48;;;;;;;;;;4990059;28;20041;-90
2021/05/02 10:38:44;;;;;;;0.10;0.10;;;;;;;;;;5008419;28;20160;-90
2021/05/02 10:41:28;;;;;;;0.10;0.10;;;;;;;;;;5024955;28;20034;-91
2021/05/02 10:43:55;;;;;;;0.30;0.15;;;;;;;;;;5003166;28;20022;-90
2021/05/02 10:46:40;;;;;;;0.00;0.00;;;;;;;;;;5015139;28;20026;-91
2021/05/02 10:49:06;;;;;;;0.28;0.10;;;;;;;;;;4975970;28;20051;-91
2021/05/02 10:51:34;;;;;;;0.00;0.00;;;;;;;;;;5008738;28;20029;-91
2021/05/02 10:54:10;;;;;;;0.00;0.00;;;;;;;;;;4998854;28;20027;-91
2021/05/02 10:56:45;;;;;;;0.10;0.03;;;;;;;;;;5000256;28;20038;-91
2021/05/02 10:59:12;;;;;;;0.00;0.00;;;;;;;;;;4999204;28;20049;-91
2021/05/02 11:01:38;;;;;;;0.00;0.00;;;;;;;;;;4999377;28;20046;-90
2021/05/02 11:04:04;;;;;;;0.10;0.10;;;;;;;;;;4995915;28;20034;-90
2021/05/02 11:06:39;;;;;;;0.20;0.10;;;;;;;;;;4998868;28;20034;-91
2021/05/02 11:09:05;;;;;;;0.43;0.20;;;;;;;;;;5017171;28;20085;-92
2021/05/02 11:16:35;;;;;;;0.40;0.10;;;;;;;;;;5028432;28;20029;-91
2021/05/02 11:19:01;;;;;;;0.30;0.10;;;;;;;;;;5014980;28;20556;-91
2021/05/02 11:21:47;;;;;;;0.10;0.10;;;;;;;;;;5027914;28;20033;-91
2021/05/02 11:24:14;;;;;;;0.00;0.00;;;;;;;;;;4986009;28;20438;-91
2021/05/02 11:27:10;;;;;;;1.65;0.10;;;;;;;;;;5001564;28;20033;-91
2021/05/02 11:29:49;;;;;;;0.10;0.10;;;;;;;;;;4989041;28;20106;-91
2021/05/02 11:32:27;;;;;;;0.00;0.00;;;;;;;;;;5008532;28;20089;-90
2021/05/02 11:34:54;;;;;;;0.03;0.03;;;;;;;;;;5015238;28;20033;-91
2021/05/02 11:37:42;;;;;;;0.10;0.10;;;;;;;;;;4996276;28;20047;-90
2021/05/02 11:40:08;;;;;;;;;;;;;;;;;;4961986;28;20053;-90
2021/05/02 11:42:50;;;;;;;0.05;0.05;;;;;;;;;;5014316;28;19906;-91
2021/05/02 11:45:16;;;;;;;0.00;0.00;;;;;;;;;;4999031;28;20038;-90
2021/05/02 11:47:42;;;;;;;0.10;0.10;;;;;;;;;;4982595;28;20050;-92
2021/05/02 11:50:08;;;;;;;0.20;0.20;;;;;;;;;;4983358;28;20487;-91
2021/05/02 11:52:43;;;;;;;0.20;0.15;;;;;;;;;;4998852;28;20387;-91
2021/05/02 11:55:25;;;;;;;0.10;0.10;;;;;;;;;;4997887;28;20019;-90
2021/05/02 11:57:51;;;;;;;0.20;0.20;;;;;;;;;;4997399;28;20023;-89
2021/05/02 12:00:17;;;;;;;0.20;0.10;;;;;;;;;;5011215;28;20037;-89
2021/05/02 12:02:44;;;;;;;0.10;0.10;;;;;;;;;;4986757;28;20153;-89
2021/05/02 12:05:10;;;;;;;0.25;0.20;;;;;;;;;;5007474;28;20027;-89
2021/05/02 12:07:36;;;;;;;0.22;0.20;;;;;;;;;;4999638;28;20018;-88
2021/05/02 12:10:15;;;;;;;0.17;0.17;;;;;;;;;;4978061;28;20081;-89
2021/05/02 12:12:41;;;;;;;0.32;0.15;;;;;;;;;;4996766;28;20097;-90
2021/05/02 12:15:07;;;;;;;1.02;0.10;;;;;;;;;;4996557;28;20064;-89
2021/05/02 12:17:33;;;;;;;0.20;0.20;;;;;;;;;;4998568;28;20061;-89
2021/05/02 12:19:59;;;;;;;0.10;0.10;;;;;;;;;;5002714;28;20041;-90
2021/05/02 12:22:25;;;;;;;0.75;0.13;;;;;;;;;;5009345;28;20048;-90
2021/05/02 12:24:51;;;;;;;0.10;0.10;;;;;;;;;;4993980;28;20038;-91
2021/05/02 12:27:18;;;;;;;0.10;0.10;;;;;;;;;;5016847;28;20033;-90
2021/05/02 12:29:46;;;;;;;0.10;0.10;;;;;;;;;;4999252;28;20022;-90
2021/05/02 12:32:16;;;;;;;0.10;0.10;;;;;;;;;;4997795;28;20471;-91
2021/05/02 12:34:44;;;;;;;0.10;0.10;;;;;;;;;;4981025;28;20052;-89
2021/05/02 12:37:12;;;;;;;0.50;0.20;;;;;;;;;;4995074;28;20034;-89
2021/05/02 12:39:39;;;;;;;0.15;0.10;;;;;;;;;;4995604;28;20023;-90
2021/05/02 12:42:06;;;;;;;0.10;0.10;;;;;;;;;;4995529;28;20022;-90
2021/05/02 12:44:32;;;;;;;1.38;0.28;;;;;;;;;;4980859;28;20027;-91
2021/05/02 12:47:00;;;;;;;0.20;0.20;;;;;;;;;;4994885;28;20065;-90
2021/05/02 12:49:27;;;;;;;0.15;0.15;;;;;;;;;;4996789;28;20049;-91
2021/05/02 12:51:58;;;;;;;0.15;0.15;;;;;;;;;;4975335;28;20018;-90
2021/05/02 12:54:25;;;;;;;0.10;0.10;;;;;;;;;;4998589;28;20439;-90
2021/05/02 12:57:08;;;;;;;0.28;0.10;;;;;;;;;;4995340;28;20030;-91
2021/05/02 13:02:25;;;;;;;0.10;0.10;;;;;;;;;;4997360;28;20113;-90
2021/05/02 13:04:59;;;;;;;0.30;0.30;;;;;;;;;;4997076;28;20022;-90
2021/05/02 13:07:29;;;;;;;0.17;0.17;;;;;;;;;;4994049;28;20394;-90
2021/05/02 13:09:55;;;;;;;0.30;0.20;;;;;;;;;;4974399;28;20022;-91
2021/05/02 13:12:21;;;;;;;0.45;0.30;;;;;;;;;;4998158;28;20113;-90
2021/05/02 13:15:04;;;;;;;0.57;0.20;;;;;;;;;;4995824;28;20037;-90
2021/05/02 13:17:30;;;;;;;0.17;0.17;;;;;;;;;;4995996;28;20117;-91
2021/05/02 13:20:00;;;;;;;0.80;0.30;;;;;;;;;;4980658;28;20105;-91
2021/05/02 13:22:27;;;;;;;0.20;0.20;;;;;;;;;;4980629;28;20018;-91
2021/05/02 13:24:53;;;;;;;0.15;0.10;;;;;;;;;;4991085;28;20057;-91
2021/05/02 13:27:31;;;;;;;0.20;0.20;;;;;;;;;;4980745;28;20034;-90
2021/05/02 13:29:57;;;;;;;;;;;;;;;;;;4995593;28;20038;-88
2021/05/02 13:32:23;;;;;;;0.30;0.30;;;;;;;;;;4995717;28;19917;-91
2021/05/02 13:34:49;;;;;;;0.20;0.20;;;;;;;;;;4983292;28;20483;-90
2021/05/02 13:37:15;;;;;;;0.20;0.20;;;;;;;;;;4998283;28;20023;-91
2021/05/02 13:39:42;;;;;;;0.20;0.20;;;;;;;;;;4981527;28;20491;-90
2021/05/02 13:42:08;;;;;;;0.17;0.17;;;;;;;;;;5000848;28;20038;-92
2021/05/02 13:44:36;;;;;;;0.20;0.20;;;;;;;;;;4980717;28;20031;-94
2021/05/02 13:47:02;;;;;;;0.25;0.25;;;;;;;;;;4992861;28;20060;-94
2021/05/02 13:49:29;;;;;;;0.13;0.13;;;;;;;;;;5006969;28;20069;-94
2021/05/02 13:51:55;;;;;;;0.20;0.20;;;;;;;;;;4983994;28;20026;-93
2021/05/02 13:54:22;;;;;;;0.32;0.32;;;;;;;;;;4991868;28;20291;-94
2021/05/02 13:56:48;;;;;;;0.28;0.20;;;;;;;;;;4986164;28;20027;-94
2021/05/02 13:59:14;;;;;;;0.50;0.28;;;;;;;;;;4988002;28;20030;-93
2021/05/02 14:01:41;;;;;;;0.30;0.30;;;;;;;;;;4983840;28;20034;-93
2021/05/02 14:04:07;;;;;;;0.53;0.40;;;;;;;;;;5004103;28;20129;-93
2021/05/02 14:06:33;;;;;;;0.10;0.10;;;;;;;;;;4998902;28;20334;-90
2021/05/02 14:09:00;;;;;;;1.02;0.30;;;;;;;;;;4987031;28;20027;-92
2021/05/02 14:11:26;;;;;;;0.10;0.10;;;;;;;;;;4993208;28;20018;-89
2021/05/02 14:13:54;;;;;;;0.28;0.25;;;;;;;;;;5009640;28;20157;-90
2021/05/02 14:16:21;;;;;;;0.30;0.20;;;;;;;;;;4992889;28;20029;-90
2021/05/02 14:18:47;;;;;;;0.50;0.22;;;;;;;;;;4997900;28;20109;-90
2021/05/02 14:21:13;;;;;;;0.30;0.30;;;;;;;;;;4997267;28;20165;-89
2021/05/02 14:23:39;;;;;;;0.75;0.30;;;;;;;;;;5006128;28;20019;-90
2021/05/02 14:26:05;;;;;;;0.38;0.30;;;;;;;;;;4989982;28;20066;-90
2021/05/02 14:28:32;;;;;;;1.13;0.32;;;;;;;;;;5001179;28;20049;-89
2021/05/02 14:30:59;;;;;;;0.20;0.20;;;;;;;;;;4978787;28;20438;-90
2021/05/02 14:33:25;;;;;;;0.20;0.20;;;;;;;;;;5004072;28;20550;-94
2021/05/02 14:35:51;;;;;;;0.52;0.50;;;;;;;;;;5010324;28;20150;-91
2021/05/02 14:38:17;;;;;;;0.55;0.40;;;;;;;;;;4995987;28;20026;-92
2021/05/02 14:40:44;;;;;;;0.30;0.20;;;;;;;;;;5009437;28;20038;-91
2021/05/02 14:43:10;;;;;;;0.32;0.30;;;;;;;;;;4976488;28;20057;-90
2021/05/02 14:45:36;;;;;;;0.35;0.35;;;;;;;;;;4989513;28;20030;-91
2021/05/02 14:48:02;;;;;;;0.30;0.30;;;;;;;;;;5011559;28;20132;-91
2021/05/02 14:50:28;;;;;;;0.30;0.30;;;;;;;;;;5004223;28;20064;-91
2021/05/02 14:52:56;;;;;;;0.20;0.20;;;;;;;;;;5008864;28;20371;-91
2021/05/02 14:55:22;;;;;;;0.40;0.30;;;;;;;;;;5010595;28;20545;-90